Time;durP1;ratioP1;P1;durP2;ratioP2;P2;SDS_P1;SDS_P2;PMS_P1;PMS_P2;Temp;Humidity;BMP_temperature;BMP_pressure;BME280_temperature;BME280_humidity;BME280_pressure;Samples;Min_cycle;Max_cycle;Signal;HPM_P1;HPM_P2
2023/08/04 00:02:58;;;;;;;;;5.00;5.00;;;;;22.51;100.00;98128.50;6044740;28;96542;-62
2023/08/04 00:06:08;;;;;;;;;4.25;4.25;;;;;22.62;100.00;98135.34;6043556;28;96438;-63
2023/08/04 00:09:11;;;;;;;;;7.00;6.00;;;;;22.62;100.00;98129.84;6043073;28;97848;-62
2023/08/04 00:12:14;;;;;;;;;6.00;6.00;;;;;22.66;100.00;98137.13;6043828;28;97118;-62
2023/08/04 00:15:17;;;;;;;;;5.20;5.20;;;;;22.67;100.00;98127.78;6033803;28;98501;-64
2023/08/04 00:18:21;;;;;;;;;5.80;5.00;;;;;22.73;100.00;98133.94;6025923;28;96762;-63
2023/08/04 00:21:25;;;;;;;;;4.00;4.00;;;;;22.75;100.00;98145.44;6044339;28;96353;-62
2023/08/04 00:24:28;;;;;;;;;6.00;5.00;;;;;22.72;100.00;98149.63;6043714;28;96543;-62
2023/08/04 00:27:31;;;;;;;;;5.20;5.00;;;;;22.67;100.00;98148.94;6026868;28;97768;-62
2023/08/04 00:30:34;;;;;;;;;6.80;5.00;;;;;22.65;100.00;98143.75;6043622;28;96796;-63
2023/08/04 00:33:39;;;;;;;;;6.00;6.00;;;;;22.60;100.00;98138.41;6040970;28;98510;-62
2023/08/04 00:36:44;;;;;;;;;5.60;4.60;;;;;22.62;100.00;98157.31;6043324;28;96794;-62
2023/08/04 00:39:47;;;;;;;;;7.00;6.25;;;;;22.56;100.00;98166.81;6042174;28;96397;-63
2023/08/04 00:42:50;;;;;;;;;6.00;6.00;;;;;22.52;100.00;98166.66;6043021;28;97998;-63
2023/08/04 00:45:53;;;;;;;;;7.00;5.00;;;;;22.46;100.00;98176.16;6026928;28;96660;-62
2023/08/04 00:48:59;;;;;;;;;6.00;6.00;;;;;22.44;100.00;98186.63;6058525;28;96352;-62
2023/08/04 00:52:03;;;;;;;;;6.00;6.00;;;;;22.45;100.00;98180.84;6015954;28;96700;-63
2023/08/04 00:55:09;;;;;;;;;4.00;4.00;;;;;22.40;100.00;98167.25;6042016;28;98657;-62
2023/08/04 00:58:13;;;;;;;;;6.00;6.00;;;;;22.43;100.00;98174.84;6043463;28;96372;-62
2023/08/04 01:01:16;;;;;;;;;5.00;5.00;;;;;22.43;100.00;98179.56;6042608;28;97382;-62
2023/08/04 01:04:22;;;;;;;;;5.00;5.00;;;;;22.44;100.00;98195.69;6040954;28;96128;-63
2023/08/04 01:07:31;;;;;;;;;6.00;6.00;;;;;22.43;100.00;98210.53;6043741;28;97119;-62
2023/08/04 01:10:41;;;;;;;;;5.50;5.50;;;;;22.44;100.00;98203.13;6043196;28;96338;-62
2023/08/04 01:13:46;;;;;;;;;4.00;4.00;;;;;22.42;100.00;98206.19;6058124;28;96427;-62
2023/08/04 01:16:49;;;;;;;;;6.40;6.40;;;;;22.42;100.00;98213.63;6041797;28;96551;-63
2023/08/04 01:19:54;;;;;;;;;4.00;4.00;;;;;22.43;100.00;98207.00;6018013;29;98495;-62
2023/08/04 01:22:58;;;;;;;;;6.60;6.60;;;;;22.41;100.00;98199.09;6039563;28;96205;-62
2023/08/04 01:26:03;;;;;;;;;5.60;4.00;;;;;22.42;100.00;98191.66;6037224;28;96920;-62
2023/08/04 01:29:07;;;;;;;;;6.00;5.75;;;;;22.44;100.00;98183.91;6053496;28;96441;-63
2023/08/04 01:32:11;;;;;;;;;5.00;4.00;;;;;22.41;100.00;98182.59;6033113;28;97686;-62
2023/08/04 01:35:16;;;;;;;;;5.00;5.00;;;;;22.38;100.00;98180.47;6025597;28;99347;-62
2023/08/04 01:38:20;;;;;;;;;6.00;5.00;;;;;22.30;100.00;98186.72;6041638;28;98459;-63
2023/08/04 01:41:24;;;;;;;;;6.00;6.00;;;;;22.23;100.00;98180.09;6049105;28;96910;-62
2023/08/04 01:44:27;;;;;;;;;5.00;5.00;;;;;22.18;100.00;98175.53;6054285;28;96276;-63
2023/08/04 01:47:31;;;;;;;;;5.25;5.25;;;;;22.14;100.00;98171.00;6043098;28;96685;-62
2023/08/04 01:50:34;;;;;;;;;4.00;4.00;;;;;22.03;100.00;98160.28;6041830;28;96564;-62
2023/08/04 01:53:38;;;;;;;;;4.00;4.00;;;;;22.00;100.00;98163.63;6057751;28;96220;-63
2023/08/04 01:56:41;;;;;;;;;5.00;5.00;;;;;21.97;100.00;98166.19;6019674;28;97474;-63
2023/08/04 01:59:46;;;;;;;;;5.00;5.00;;;;;21.93;100.00;98176.16;6033821;28;96442;-62
2023/08/04 02:02:49;;;;;;;;;5.00;4.00;;;;;21.90;100.00;98174.81;6047907;28;96541;-63
2023/08/04 02:05:53;;;;;;;;;6.20;6.00;;;;;21.88;100.00;98173.53;6041085;28;97610;-62
2023/08/04 02:08:58;;;;;;;;;5.00;5.00;;;;;21.86;100.00;98171.09;6043219;28;98874;-62
2023/08/04 02:12:02;;;;;;;;;2.60;2.60;;;;;21.90;100.00;98174.00;6061756;28;96373;-62
2023/08/04 02:15:06;;;;;;;;;3.60;3.40;;;;;21.91;100.00;98176.47;6046178;28;96903;-62
2023/08/04 02:18:09;;;;;;;;;4.00;3.00;;;;;21.96;100.00;98175.53;6046596;28;96822;-63
2023/08/04 02:21:13;;;;;;;;;5.00;4.00;;;;;22.02;100.00;98194.34;6031610;28;96667;-62
2023/08/04 02:24:18;;;;;;;;;4.60;4.00;;;;;22.10;100.00;98189.19;6037833;28;98543;-63
2023/08/04 02:27:22;;;;;;;;;3.00;2.60;;;;;22.12;100.00;98196.00;6061619;28;96547;-63
2023/08/04 02:30:25;;;;;;;;;5.60;5.60;;;;;22.13;100.00;98208.63;6043914;28;96366;-62
2023/08/04 02:33:30;;;;;;;;;4.40;4.00;;;;;22.10;100.00;98194.69;6038544;28;96687;-64
2023/08/04 02:36:33;;;;;;;;;5.00;5.00;;;;;22.13;100.00;98202.31;6044180;28;97245;-62
2023/08/04 02:39:38;;;;;;;;;6.00;4.75;;;;;22.06;100.00;98183.53;6029009;28;97679;-62
2023/08/04 02:42:41;;;;;;;;;5.00;4.00;;;;;22.12;100.00;98192.44;6043431;28;96031;-62
2023/08/04 02:45:48;;;;;;;;;4.67;4.00;;;;;22.15;100.00;98194.56;6045421;28;97054;-62
2023/08/04 02:48:51;;;;;;;;;6.00;5.00;;;;;22.17;100.00;98200.56;6045649;28;96589;-62
2023/08/04 02:51:54;;;;;;;;;7.40;7.00;;;;;22.19;100.00;98196.34;6032530;28;98676;-62
2023/08/04 02:54:59;;;;;;;;;3.00;3.00;;;;;22.25;100.00;98199.78;6045590;28;96442;-62
2023/08/04 02:58:02;;;;;;;;;6.00;5.67;;;;;22.30;100.00;98205.16;6044577;28;97676;-62
2023/08/04 03:01:05;;;;;;;;;3.00;3.00;;;;;22.37;100.00;98187.09;6045599;28;96396;-62
2023/08/04 03:04:08;;;;;;;;;6.00;5.40;;;;;22.39;100.00;98179.34;6044141;28;97155;-62
2023/08/04 03:07:12;;;;;;;;;6.00;5.20;;;;;22.43;100.00;98174.06;6045718;28;96427;-62
2023/08/04 03:10:16;;;;;;;;;7.00;6.00;;;;;22.40;100.00;98178.22;6053795;28;96435;-62
2023/08/04 03:13:20;;;;;;;;;5.00;5.00;;;;;22.38;100.00;98182.44;6045635;28;96629;-62
2023/08/04 03:16:23;;;;;;;;;5.00;5.00;;;;;22.33;100.00;98191.59;6045482;28;97220;-62
2023/08/04 03:19:27;;;;;;;;;5.40;5.00;;;;;22.32;100.00;98197.41;6028036;28;96550;-62
2023/08/04 03:22:30;;;;;;;;;5.80;4.80;;;;;22.27;100.00;98195.63;6044480;28;96579;-62
2023/08/04 03:25:35;;;;;;;;;7.00;5.00;;;;;22.24;100.00;98189.91;6045484;28;97200;-63
2023/08/04 03:28:38;;;;;;;;;5.60;5.40;;;;;22.19;100.00;98177.13;6050257;28;96410;-63
2023/08/04 03:31:42;;;;;;;;;5.00;4.20;;;;;22.18;100.00;98189.28;6041805;28;96662;-63
2023/08/04 03:34:45;;;;;;;;;4.50;4.50;;;;;22.18;100.00;98193.94;6039474;28;96505;-62
2023/08/04 03:37:48;;;;;;;;;6.00;5.00;;;;;22.18;100.00;98189.28;6044967;28;96983;-62
2023/08/04 03:40:53;;;;;;;;;6.00;6.00;;;;;22.19;100.00;98201.84;6044428;28;96280;-62
2023/08/04 03:43:56;;;;;;;;;5.00;5.00;;;;;22.22;100.00;98189.44;6010588;28;98713;-62
2023/08/04 03:46:59;;;;;;;;;4.00;4.00;;;;;22.24;100.00;98209.94;6040300;28;96599;-63
2023/08/04 03:50:03;;;;;;;;;6.00;6.00;;;;;22.28;100.00;98215.66;6050101;28;96498;-63
2023/08/04 03:53:06;;;;;;;;;5.60;4.20;;;;;22.29;100.00;98226.28;6027494;28;96784;-63
2023/08/04 03:56:11;;;;;;;;;7.00;6.00;;;;;22.23;100.00;98215.78;6025790;28;98815;-63
2023/08/04 03:59:14;;;;;;;;;7.00;6.00;;;;;22.29;100.00;98240.03;6043621;28;97056;-62
2023/08/04 04:02:17;;;;;;;;;5.00;4.00;;;;;22.30;100.00;98243.59;6043881;28;96387;-63
2023/08/04 04:05:20;;;;;;;;;5.00;5.00;;;;;22.27;100.00;98241.47;6060110;28;97840;-63
2023/08/04 04:08:27;;;;;;;;;3.75;3.75;;;;;22.28;100.00;98238.44;6052886;28;96511;-64
2023/08/04 04:11:32;;;;;;;;;3.80;3.80;;;;;22.28;100.00;98234.88;6044085;28;96607;-63
2023/08/04 04:14:35;;;;;;;;;3.40;3.00;;;;;22.27;100.00;98236.00;6058995;28;96424;-63
2023/08/04 04:17:38;;;;;;;;;4.00;4.00;;;;;22.27;100.00;98249.72;6043493;28;96370;-62
2023/08/04 04:20:41;;;;;;;;;4.40;3.00;;;;;22.30;100.00;98251.81;6043113;28;96925;-63
2023/08/04 04:23:44;;;;;;;;;4.00;4.00;;;;;22.34;100.00;98255.56;6044500;28;96340;-62
2023/08/04 04:26:49;;;;;;;;;4.60;4.60;;;;;22.35;100.00;98255.25;6043588;28;97038;-62
2023/08/04 04:29:52;;;;;;;;;3.20;3.20;;;;;22.40;100.00;98262.56;6039297;28;96601;-63
2023/08/04 04:32:55;;;;;;;;;3.00;3.00;;;;;22.45;100.00;98265.16;6018644;28;97946;-62
2023/08/04 04:35:58;;;;;;;;;5.00;4.00;;;;;22.50;100.00;98275.22;6042974;28;96366;-63
2023/08/04 04:39:03;;;;;;;;;6.00;5.50;;;;;22.53;100.00;98293.84;6042411;28;96298;-62
2023/08/04 04:42:08;;;;;;;;;3.60;3.60;;;;;22.60;100.00;98302.44;6042195;28;97033;-62
2023/08/04 04:45:12;;;;;;;;;5.80;5.00;;;;;22.57;100.00;98297.56;6048628;28;97603;-62
2023/08/04 04:48:15;;;;;;;;;6.00;6.00;;;;;22.68;100.00;98301.66;6042153;28;97037;-62
2023/08/04 04:51:18;;;;;;;;;4.60;4.60;;;;;22.73;100.00;98291.38;6034238;28;97053;-62
2023/08/04 04:54:21;;;;;;;;;5.00;5.00;;;;;22.79;100.00;98290.13;6041667;28;96880;-62
2023/08/04 04:57:26;;;;;;;;;4.00;4.00;;;;;22.80;100.00;98291.75;6051495;28;98241;-62
2023/08/04 05:00:31;;;;;;;;;5.00;4.00;;;;;22.85;100.00;98296.31;6041396;28;96479;-62
2023/08/04 05:03:34;;;;;;;;;5.00;5.00;;;;;22.86;100.00;98301.50;6043450;28;96955;-62
2023/08/04 05:06:38;;;;;;;;;6.00;6.00;;;;;22.87;100.00;98305.84;6035331;28;96373;-62
2023/08/04 05:09:42;;;;;;;;;4.50;4.00;;;;;22.89;100.00;98322.03;6023589;28;97385;-63
2023/08/04 05:12:46;;;;;;;;;7.00;7.00;;;;;22.88;100.00;98332.19;6023365;28;99219;-63
2023/08/04 05:15:50;;;;;;;;;5.00;5.00;;;;;22.91;100.00;98325.28;6042078;28;98106;-63
2023/08/04 05:18:53;;;;;;;;;6.60;6.60;;;;;22.89;100.00;98320.09;6030175;28;96465;-62
2023/08/04 05:21:56;;;;;;;;;5.00;5.00;;;;;22.89;100.00;98313.78;6041525;28;96813;-62
2023/08/04 05:24:59;;;;;;;;;5.00;3.40;;;;;22.92;100.00;98302.13;6038249;28;96775;-62
2023/08/04 05:28:23;;;;;;;;;4.00;3.60;;;;;22.90;100.00;98301.66;6046214;28;96599;-62
2023/08/04 05:31:26;;;;;;;;;5.00;5.00;;;;;23.00;100.00;98311.56;6041517;28;97611;-63
2023/08/04 05:34:29;;;;;;;;;6.00;6.00;;;;;23.04;100.00;98318.88;6040664;28;96479;-62
2023/08/04 05:37:33;;;;;;;;;6.00;6.00;;;;;23.10;100.00;98323.09;6040771;28;97121;-63
2023/08/04 05:40:38;;;;;;;;;3.20;3.20;;;;;23.16;100.00;98315.53;6023960;28;96480;-63
2023/08/04 05:43:43;;;;;;;;;4.00;3.40;;;;;23.25;100.00;98322.69;6041892;28;96887;-63
2023/08/04 05:46:46;;;;;;;;;5.60;5.00;;;;;23.28;100.00;98323.97;6029492;28;97758;-63
2023/08/04 05:49:49;;;;;;;;;5.00;4.00;;;;;23.30;100.00;98317.03;6028777;28;98401;-62
2023/08/04 05:52:52;;;;;;;;;5.00;4.00;;;;;23.36;100.00;98317.69;6030961;28;98985;-62
2023/08/04 05:55:55;;;;;;;;;4.25;3.25;;;;;23.43;100.00;98319.97;6046341;28;96447;-63
2023/08/04 05:59:00;;;;;;;;;6.80;5.00;;;;;23.50;100.00;98303.84;6058195;28;96746;-63
2023/08/04 06:02:03;;;;;;;;;3.40;3.40;;;;;23.57;100.00;98307.75;6030236;28;96789;-63
2023/08/04 06:05:07;;;;;;;;;3.20;3.20;;;;;23.61;100.00;98305.97;6027343;28;96902;-62
2023/08/04 06:08:11;;;;;;;;;2.60;2.60;;;;;23.69;100.00;98309.88;6045774;28;96308;-63
2023/08/04 06:11:14;;;;;;;;;4.00;3.33;;;;;23.67;100.00;98323.97;6048257;28;96857;-62
2023/08/04 06:14:19;;;;;;;;;4.00;4.00;;;;;23.77;100.00;98339.34;6038567;28;96233;-63
2023/08/04 06:17:22;;;;;;;;;3.00;3.00;;;;;23.81;100.00;98336.75;6059197;28;96939;-63
2023/08/04 06:20:25;;;;;;;;;4.00;3.00;;;;;23.84;100.00;98342.47;6046850;28;96157;-63
2023/08/04 06:23:29;;;;;;;;;4.75;4.75;;;;;23.88;100.00;98326.91;6044924;28;99004;-62
2023/08/04 06:26:32;;;;;;;;;6.00;4.00;;;;;23.90;100.00;98319.13;6046326;28;96929;-63
2023/08/04 06:29:37;;;;;;;;;6.75;6.00;;;;;24.02;100.00;98341.34;6028501;28;96795;-63
2023/08/04 06:32:40;;;;;;;;;6.00;5.00;;;;;24.11;100.00;98330.31;6043132;28;96612;-63
2023/08/04 06:35:44;;;;;;;;;4.50;4.50;;;;;24.17;100.00;98340.09;6029814;28;96670;-62
2023/08/04 06:38:47;;;;;;;;;4.00;4.00;;;;;24.18;100.00;98349.97;6045321;28;96296;-63
2023/08/04 06:41:50;;;;;;;;;5.00;5.00;;;;;24.24;100.00;98361.66;6028723;28;97177;-62
2023/08/04 06:44:55;;;;;;;;;5.75;5.75;;;;;24.13;100.00;98344.59;6028330;28;98499;-62
2023/08/04 06:47:58;;;;;;;;;4.00;4.00;;;;;24.23;100.00;98338.00;6028609;28;97086;-62
2023/08/04 06:51:01;;;;;;;;;4.00;4.00;;;;;24.22;100.00;98331.66;6045411;28;96576;-62
2023/08/04 06:54:05;;;;;;;;;6.00;6.00;;;;;24.20;100.00;98338.63;6044635;28;96370;-62
2023/08/04 06:57:08;;;;;;;;;5.40;4.40;;;;;24.22;100.00;98334.41;6045438;28;97059;-63
2023/08/04 07:00:13;;;;;;;;;5.20;4.20;;;;;24.23;100.00;98351.75;6033760;28;98521;-62
2023/08/04 07:03:16;;;;;;;;;5.00;5.00;;;;;24.26;100.00;98346.41;6045947;28;97789;-63
2023/08/04 07:06:19;;;;;;;;;4.50;4.50;;;;;24.29;100.00;98351.25;6045759;28;96902;-63
2023/08/04 07:09:23;;;;;;;;;5.00;5.00;;;;;24.33;100.00;98360.50;6043898;28;96580;-63
2023/08/04 07:12:26;;;;;;;;;5.50;5.00;;;;;24.41;100.00;98365.19;6036911;28;96421;-63
2023/08/04 07:15:32;;;;;;;;;5.00;4.00;;;;;24.47;100.00;98369.41;6031050;28;96372;-62
2023/08/04 07:18:35;;;;;;;;;4.25;3.75;;;;;24.59;100.00;98369.56;6068370;28;96614;-63
2023/08/04 07:21:38;;;;;;;;;4.00;4.00;;;;;24.75;100.00;98344.25;6030372;28;97721;-62
2023/08/04 07:24:42;;;;;;;;;5.00;4.00;;;;;24.95;100.00;98357.38;6033952;28;97468;-62
2023/08/04 07:27:46;;;;;;;;;4.00;4.00;;;;;25.07;100.00;98379.56;6045788;28;96486;-63
2023/08/04 07:30:51;;;;;;;;;5.00;5.00;;;;;25.24;100.00;98379.50;6040180;28;96520;-63
2023/08/04 07:33:55;;;;;;;;;5.00;4.80;;;;;25.36;100.00;98387.91;6060383;28;96957;-63
2023/08/04 07:36:58;;;;;;;;;3.00;3.00;;;;;25.41;100.00;98373.91;6045276;28;96524;-62
2023/08/04 07:40:01;;;;;;;;;5.00;5.00;;;;;25.54;100.00;98379.56;6039371;28;96922;-62
2023/08/04 07:43:06;;;;;;;;;3.80;2.80;;;;;25.51;100.00;98378.25;6045223;28;97023;-63
2023/08/04 07:46:18;;;;;;;;;5.33;5.33;;;;;25.59;100.00;98388.50;6053303;28;98747;-63
2023/08/04 07:49:22;;;;;;;;;4.00;4.00;;;;;25.63;100.00;98383.13;6045614;28;96551;-63
2023/08/04 07:52:25;;;;;;;;;4.00;4.00;;;;;25.78;100.00;98385.31;6020262;28;98990;-63
2023/08/04 07:55:28;;;;;;;;;3.80;3.80;;;;;25.95;100.00;98387.97;6030426;28;96634;-63
2023/08/04 07:58:31;;;;;;;;;5.80;5.00;;;;;26.03;100.00;98391.81;6036670;28;98537;-63
2023/08/04 08:01:36;;;;;;;;;2.00;2.00;;;;;26.03;100.00;98391.81;6045273;28;96456;-62
2023/08/04 08:04:39;;;;;;;;;3.00;3.00;;;;;25.98;100.00;98392.84;6037863;28;96340;-63
2023/08/04 08:07:43;;;;;;;;;6.00;6.00;;;;;25.94;100.00;98380.84;6044052;28;96309;-63
2023/08/04 08:10:48;;;;;;;;;3.00;3.00;;;;;25.81;100.00;98379.13;6047126;28;96863;-62
2023/08/04 08:13:51;;;;;;;;;7.00;7.00;;;;;25.77;100.00;98369.88;6038696;28;96580;-63
2023/08/04 08:16:56;;;;;;;;;5.00;4.40;;;;;25.80;100.00;98356.22;6036016;28;96623;-63
2023/08/04 08:20:00;;;;;;;;;6.00;5.00;;;;;25.82;100.00;98353.94;6042727;28;96469;-63
2023/08/04 08:23:03;;;;;;;;;6.00;6.00;;;;;25.91;100.00;98361.34;6025511;28;99305;-63
2023/08/04 08:26:06;;;;;;;;;4.00;2.00;;;;;25.83;100.00;98372.13;6041312;28;97324;-63
2023/08/04 08:29:11;;;;;;;;;4.00;4.00;;;;;25.77;100.00;98367.13;6042127;28;96399;-63
2023/08/04 08:32:15;;;;;;;;;4.20;4.00;;;;;25.70;100.00;98375.94;6041843;28;97556;-63
2023/08/04 08:35:19;;;;;;;;;4.00;3.00;;;;;25.63;100.00;98377.59;6014600;28;96762;-63
2023/08/04 08:38:22;;;;;;;;;5.00;5.00;;;;;25.75;100.00;98374.94;6025694;28;98550;-64
2023/08/04 08:41:25;;;;;;;;;4.00;4.00;;;;;25.78;100.00;98388.06;6035443;28;96430;-63
2023/08/04 08:44:29;;;;;;;;;4.00;4.00;;;;;25.70;100.00;98391.69;6043501;28;97531;-62
2023/08/04 08:47:36;;;;;;;;;5.00;5.00;;;;;25.76;100.00;98404.97;6043901;28;96411;-63
2023/08/04 08:50:41;;;;;;;;;5.60;4.60;;;;;25.83;100.00;98398.94;6042872;28;97693;-62
2023/08/04 08:53:48;;;;;;;;;4.67;4.67;;;;;25.95;100.00;98410.06;6058738;28;96379;-62
2023/08/04 08:56:51;;;;;;;;;3.60;3.60;;;;;26.04;100.00;98402.56;6043416;28;96388;-62
2023/08/04 08:59:57;;;;;;;;;3.33;3.33;;;;;26.13;100.00;98403.31;6041683;28;96505;-63
2023/08/04 09:03:05;;;;;;;;;6.00;5.60;;;;;26.24;100.00;98406.50;6035251;28;99277;-62
2023/08/04 09:06:08;;;;;;;;;5.00;4.60;;;;;26.37;100.00;98393.56;6013727;28;97323;-64
2023/08/04 09:09:11;;;;;;;;;4.00;3.50;;;;;26.40;100.00;98382.63;6016573;28;97072;-63
2023/08/04 09:12:16;;;;;;;;;4.00;4.00;;;;;26.52;100.00;98391.00;6041423;28;97003;-63
2023/08/04 09:15:19;;;;;;;;;5.00;5.00;;;;;26.68;100.00;98382.91;6040926;28;96436;-64
2023/08/04 09:18:29;;;;;;;;;4.00;4.00;;;;;26.87;100.00;98379.66;6014708;28;97429;-63
2023/08/04 09:21:32;;;;;;;;;4.00;4.00;;;;;26.95;100.00;98387.06;6038240;28;96925;-63
2023/08/04 09:24:36;;;;;;;;;3.00;3.00;;;;;27.05;100.00;98373.59;6041696;28;96429;-63
2023/08/04 09:27:42;;;;;;;;;4.00;4.00;;;;;27.05;100.00;98370.84;6027901;28;98586;-63
2023/08/04 09:31:01;;;;;;;;;4.00;3.00;;;;;27.07;100.00;98364.97;6039956;28;97262;-63
2023/08/04 09:34:06;;;;;;;;;3.00;3.00;;;;;27.07;100.00;98376.81;6039015;28;96521;-63
2023/08/04 09:37:09;;;;;;;;;3.60;3.00;;;;;27.14;100.00;98376.25;6040908;28;96809;-63
2023/08/04 09:40:18;;;;;;;;;2.00;2.00;;;;;27.19;100.00;98389.88;6028345;28;96870;-63
2023/08/04 09:43:22;;;;;;;;;3.40;3.40;;;;;27.25;100.00;98394.06;6033270;28;96825;-63
2023/08/04 09:46:26;;;;;;;;;1.00;1.00;;;;;27.30;100.00;98393.03;6040696;28;96349;-63
2023/08/04 09:49:30;;;;;;;;;3.00;3.00;;;;;27.40;100.00;98390.63;6019642;28;96712;-63
2023/08/04 09:52:34;;;;;;;;;5.00;5.00;;;;;27.52;100.00;98387.06;6036321;28;96404;-63
2023/08/04 09:55:37;;;;;;;;;5.00;4.00;;;;;27.64;100.00;98381.56;6043628;28;96473;-63
2023/08/04 09:58:42;;;;;;;;;2.60;2.00;;;;;27.80;100.00;98388.03;6042182;28;96967;-63
2023/08/04 10:01:45;;;;;;;;;3.00;3.00;;;;;27.90;100.00;98379.25;6042822;28;96670;-63
2023/08/04 10:04:51;;;;;;;;;5.40;5.40;;;;;27.98;100.00;98375.53;6042595;28;96327;-64
2023/08/04 10:07:55;;;;;;;;;3.75;3.75;;;;;28.05;100.00;98379.69;6040222;28;97334;-63
2023/08/04 10:11:00;;;;;;;;;4.00;4.00;;;;;27.99;100.00;98374.38;6041176;28;96672;-64
2023/08/04 10:14:05;;;;;;;;;3.00;3.00;;;;;28.01;100.00;98369.28;6026255;28;98589;-63
2023/08/04 10:17:09;;;;;;;;;2.20;2.20;;;;;28.20;100.00;98379.78;6043429;28;96553;-64
2023/08/04 10:20:14;;;;;;;;;5.00;4.00;;;;;28.25;100.00;98378.72;6043056;28;96621;-64
2023/08/04 10:23:17;;;;;;;;;5.00;4.00;;;;;28.44;100.00;98381.72;6027524;28;96913;-64
2023/08/04 10:26:20;;;;;;;;;5.00;5.00;;;;;28.77;100.00;98387.06;6042267;28;96784;-63
2023/08/04 10:29:31;;;;;;;;;3.00;2.00;;;;;29.08;100.00;98376.00;6059999;28;96525;-64
2023/08/04 10:32:36;;;;;;;;;1.00;1.00;;;;;29.45;100.00;98387.72;6042534;28;96327;-64
2023/08/04 10:36:09;;;;;;;;;3.00;2.00;;;;;29.57;100.00;98401.50;6048552;28;96355;-63
2023/08/04 10:39:26;;;;;;;;;3.00;2.00;;;;;29.86;100.00;98402.25;6048435;28;96244;-64
2023/08/04 10:43:02;;;;;;;;;3.00;3.00;;;;;30.25;100.00;98408.75;6047824;28;96426;-64
2023/08/04 10:46:10;;;;;;;;;2.00;2.00;;;;;30.46;100.00;98398.09;6040864;28;96502;-63
2023/08/04 10:49:14;;;;;;;;;3.00;3.00;;;;;30.79;100.00;98386.50;6047909;28;96361;-64
2023/08/04 10:52:19;;;;;;;;;3.00;2.20;;;;;31.01;100.00;98393.25;6047709;28;96530;-64
2023/08/04 10:55:22;;;;;;;;;5.80;5.80;;;;;31.14;100.00;98395.53;6048133;28;96403;-64
2023/08/04 10:58:26;;;;;;;;;4.00;4.00;;;;;31.35;100.00;98395.13;6030849;28;96703;-63
2023/08/04 11:01:29;;;;;;;;;4.60;4.00;;;;;31.78;100.00;98389.13;6028936;28;98618;-64
2023/08/04 11:04:37;;;;;;;;;4.00;3.00;;;;;32.25;100.00;98377.53;6046086;28;96259;-64
2023/08/04 11:07:47;;;;;;;;;2.00;2.00;;;;;32.78;100.00;98391.41;6058958;28;96647;-63
2023/08/04 11:10:52;;;;;;;;;2.80;2.80;;;;;32.91;100.00;98383.56;6045381;28;96774;-64
2023/08/04 11:13:57;;;;;;;;;2.75;2.75;;;;;32.90;96.93;98395.91;6047620;28;96398;-63
2023/08/04 11:17:01;;;;;;;;;2.00;2.00;;;;;33.19;100.00;98391.47;6059541;28;96456;-65
2023/08/04 11:20:11;;;;;;;;;3.00;3.00;;;;;33.65;98.22;98386.34;6040000;28;98548;-64
2023/08/04 11:23:35;;;;;;;;;3.00;2.20;;;;;34.36;91.83;98390.50;6013793;28;98847;-65
2023/08/04 11:26:39;;;;;;;;;3.00;3.00;;;;;34.57;79.32;98393.41;6036759;28;98414;-64
2023/08/04 11:29:42;;;;;;;;;2.25;2.00;;;;;34.56;85.37;98386.19;6044484;28;96512;-65
2023/08/04 11:32:49;;;;;;;;;2.00;2.00;;;;;34.51;79.95;98389.38;6045202;28;96948;-64
2023/08/04 11:35:53;;;;;;;;;3.00;3.00;;;;;34.74;89.56;98397.53;6046207;28;96391;-64
2023/08/04 11:38:58;;;;;;;;;2.00;2.00;;;;;34.98;85.84;98396.00;6045935;28;96525;-64
2023/08/04 11:42:02;;;;;;;;;2.40;2.00;;;;;35.02;84.92;98400.41;6045921;28;96597;-65
2023/08/04 11:45:08;;;;;;;;;2.00;2.00;;;;;34.86;76.56;98388.75;6029494;28;97275;-64
2023/08/04 11:48:12;;;;;;;;;2.00;1.00;;;;;34.59;71.83;98401.44;6046848;28;96373;-64
2023/08/04 11:51:15;;;;;;;;;3.00;3.00;;;;;34.36;73.20;98396.09;6046070;28;96281;-63
2023/08/04 11:54:22;;;;;;;;;2.00;2.00;;;;;34.26;77.74;98399.63;6046220;28;96473;-64
2023/08/04 11:57:26;;;;;;;;;3.00;3.00;;;;;34.24;82.59;98397.22;6046092;28;96285;-63
2023/08/04 12:00:33;;;;;;;;;3.40;3.40;;;;;34.28;83.62;98386.06;6045034;28;97107;-63
2023/08/04 12:03:44;;;;;;;;;2.00;2.00;;;;;34.24;80.65;98388.03;6030132;28;96442;-64
2023/08/04 12:06:48;;;;;;;;;2.20;2.20;;;;;34.22;79.89;98382.00;6028469;28;96947;-64
2023/08/04 12:09:53;;;;;;;;;4.00;3.00;;;;;34.11;85.57;98383.94;6046446;28;96520;-64
2023/08/04 12:12:56;;;;;;;;;2.00;2.00;;;;;34.16;90.79;98380.78;6032085;28;96745;-64
2023/08/04 12:15:59;;;;;;;;;2.00;2.00;;;;;34.35;87.15;98386.91;6045950;28;97521;-65
2023/08/04 12:19:05;;;;;;;;;1.00;1.00;;;;;34.41;85.13;98387.31;6033208;28;96756;-64
2023/08/04 12:22:09;;;;;;;;;2.80;2.80;;;;;34.38;75.91;98390.09;6045342;28;96518;-64
2023/08/04 12:25:14;;;;;;;;;1.00;1.00;;;;;34.65;83.71;98386.63;6060140;28;96699;-64
2023/08/04 12:28:17;;;;;;;;;2.00;2.00;;;;;34.53;76.35;98375.00;6031779;28;97051;-64
2023/08/04 12:31:24;;;;;;;;;3.00;3.00;;;;;34.39;78.19;98372.13;6042965;28;96958;-64
2023/08/04 12:34:27;;;;;;;;;1.25;1.25;;;;;34.45;84.17;98376.16;6043582;28;96297;-64
2023/08/04 12:37:31;;;;;;;;;1.40;1.40;;;;;34.64;81.91;98371.06;6045254;28;96668;-63
2023/08/04 12:40:36;;;;;;;;;1.00;1.00;;;;;34.40;72.82;98376.53;6045185;28;96378;-64
2023/08/04 12:43:39;;;;;;;;;2.00;2.00;;;;;34.20;72.01;98385.22;6045379;28;96660;-64
2023/08/04 12:46:42;;;;;;;;;4.00;3.00;;;;;34.02;71.85;98389.03;6044939;28;96562;-63
2023/08/04 12:49:45;;;;;;;;;1.50;1.00;;;;;34.03;75.57;98394.25;6044803;28;96299;-63
2023/08/04 12:52:49;;;;;;;;;3.00;3.00;;;;;34.01;76.27;98393.06;6042233;28;98804;-63
2023/08/04 12:55:53;;;;;;;;;3.00;3.00;;;;;34.27;74.39;98401.22;6020331;29;96732;-64
2023/08/04 12:58:56;;;;;;;;;5.00;4.60;;;;;34.46;75.08;98411.34;6043209;28;96389;-64
2023/08/04 13:02:00;;;;;;;;;3.00;3.00;;;;;34.57;74.72;98403.81;6030156;28;96763;-64
2023/08/04 13:05:03;;;;;;;;;4.40;4.00;;;;;34.37;75.06;98403.28;6044137;28;96933;-64
2023/08/04 13:08:07;;;;;;;;;6.00;6.00;;;;;34.33;73.48;98396.88;6031908;28;97067;-63
2023/08/04 13:11:11;;;;;;;;;3.40;3.00;;;;;34.33;74.03;98389.28;6044246;28;96350;-63
2023/08/04 13:14:14;;;;;;;;;3.00;3.00;;;;;34.38;74.45;98392.91;6036775;28;96412;-64
2023/08/04 13:17:17;;;;;;;;;6.00;4.00;;;;;34.80;87.37;98397.97;6046038;28;97058;-64
2023/08/04 13:20:20;;;;;;;;;2.00;2.00;;;;;34.91;76.62;98393.16;6032486;28;97787;-63
2023/08/04 13:23:24;;;;;;;;;3.00;3.00;;;;;34.70;85.43;98396.69;6043752;28;96596;-65
2023/08/04 13:26:28;;;;;;;;;3.75;3.75;;;;;34.76;86.59;98406.31;6039689;28;96396;-65
2023/08/04 13:29:31;;;;;;;;;3.40;3.40;;;;;34.73;83.84;98407.91;6050413;28;97015;-63
2023/08/04 13:32:35;;;;;;;;;3.00;3.00;;;;;34.57;82.31;98418.59;6056087;28;97465;-65
2023/08/04 13:35:38;;;;;;;;;4.00;4.00;;;;;34.33;81.81;98408.88;6023604;28;96974;-64
2023/08/04 13:38:43;;;;;;;;;5.60;5.00;;;;;34.12;85.98;98411.50;6043356;28;96422;-64
2023/08/04 13:41:49;;;;;;;;;4.00;4.00;;;;;34.00;86.73;98411.81;6043034;28;96304;-64
2023/08/04 13:44:54;;;;;;;;;4.80;4.40;;;;;33.85;87.93;98407.31;6024921;28;99304;-63
2023/08/04 13:47:57;;;;;;;;;4.75;3.75;;;;;33.62;87.88;98401.09;6046647;28;96718;-64
2023/08/04 13:51:02;;;;;;;;;5.00;4.40;;;;;33.14;84.46;98395.41;6044023;28;96347;-64
2023/08/04 13:54:26;;;;;;;;;4.00;4.00;;;;;32.64;92.28;98388.44;6030881;28;98419;-64
2023/08/04 13:57:31;;;;;;;;;4.40;4.40;;;;;32.50;92.14;98391.03;6067827;28;96514;-63
2023/08/04 14:00:43;;;;;;;;;4.00;4.00;;;;;32.43;95.33;98394.53;6031798;28;97301;-63
2023/08/04 14:03:47;;;;;;;;;4.40;4.40;;;;;32.47;92.36;98381.41;6044876;28;96341;-64
2023/08/04 14:06:50;;;;;;;;;4.00;4.00;;;;;32.30;92.41;98370.03;6030084;28;96671;-63
2023/08/04 14:09:53;;;;;;;;;4.00;4.00;;;;;32.40;93.87;98388.91;6040692;28;96872;-64
2023/08/04 14:12:58;;;;;;;;;5.00;4.40;;;;;32.41;93.93;98385.72;6028649;28;96929;-64
2023/08/04 14:16:08;;;;;;;;;3.80;3.80;;;;;32.51;93.73;98385.06;6047681;28;96507;-63
2023/08/04 14:19:11;;;;;;;;;3.20;3.20;;;;;32.71;88.78;98388.53;6046225;28;98579;-63
2023/08/04 14:22:15;;;;;;;;;3.00;2.00;;;;;32.70;92.23;98392.50;6046992;28;99044;-64